createdAt,value
2019-05-22T00:01:44.045Z,27.10
2019-05-22T00:04:30.461Z,27.10
2019-05-22T00:07:06.371Z,26.80
2019-05-22T00:09:44.879Z,26.70
2019-05-22T00:12:19.119Z,26.60
2019-05-22T00:14:53.107Z,26.40
2019-05-22T00:17:32.734Z,26.60
2019-05-22T00:20:06.705Z,27.00
2019-05-22T00:22:41.728Z,27.10
2019-05-22T00:25:21.141Z,27.30
2019-05-22T00:27:55.135Z,27.10
2019-05-22T00:30:29.437Z,27.20
2019-05-22T00:33:02.546Z,27.30
2019-05-22T00:35:37.413Z,27.50
2019-05-22T00:38:10.234Z,27.50
2019-05-22T00:40:51.691Z,27.60
2019-05-22T00:43:42.360Z,27.50
2019-05-22T00:46:19.053Z,27.60
2019-05-22T00:48:52.716Z,27.70
2019-05-22T00:51:41.290Z,27.50
2019-05-22T00:54:33.684Z,27.50
2019-05-22T00:57:27.965Z,27.60
2019-05-22T01:00:16.367Z,27.50
2019-05-22T01:02:51.009Z,27.50
2019-05-22T01:05:24.554Z,27.40
2019-05-22T01:07:56.984Z,27.30
2019-05-22T01:10:31.472Z,27.60
2019-05-22T01:13:04.867Z,27.40
2019-05-22T01:15:38.534Z,27.40
2019-05-22T01:18:14.784Z,27.30
2019-05-22T01:20:49.777Z,27.30
2019-05-22T01:23:25.265Z,27.30
2019-05-22T01:25:58.623Z,27.30
2019-05-22T01:28:32.737Z,27.40
2019-05-22T01:31:14.117Z,27.50
2019-05-22T01:33:49.947Z,27.60
2019-05-22T01:36:30.844Z,27.60
2019-05-22T01:39:36.741Z,27.90
2019-05-22T01:42:13.398Z,27.80
2019-05-22T01:44:59.853Z,27.80
2019-05-22T01:47:45.277Z,27.70
2019-05-22T01:50:43.762Z,27.90
2019-05-22T01:53:19.045Z,27.90
2019-05-22T01:55:58.595Z,28.00
2019-05-22T01:58:32.461Z,28.00
2019-05-22T02:01:11.056Z,28.00
2019-05-22T02:03:44.791Z,27.70
2019-05-22T02:06:19.481Z,27.80
2019-05-22T02:09:00.580Z,27.70
2019-05-22T02:11:35.908Z,27.40
2019-05-22T02:14:14.639Z,27.40
2019-05-22T02:16:56.635Z,27.50
2019-05-22T02:19:25.218Z,27.60
2019-05-22T02:21:59.205Z,27.80
2019-05-22T02:24:31.335Z,27.70
2019-05-22T02:27:04.967Z,27.70
2019-05-22T02:29:38.285Z,27.60
2019-05-22T02:32:14.667Z,27.70
2019-05-22T02:34:47.044Z,27.80
2019-05-22T02:37:21.094Z,28.00
2019-05-22T02:39:53.715Z,28.10
2019-05-22T02:42:33.164Z,28.00
2019-05-22T02:45:05.332Z,28.00
2019-05-22T02:47:39.330Z,27.90
2019-05-22T02:50:12.824Z,28.00
2019-05-22T02:52:46.131Z,28.10
2019-05-22T02:55:19.341Z,28.20
2019-05-22T02:57:51.999Z,28.10
2019-05-22T03:00:27.362Z,28.20
2019-05-22T03:02:59.810Z,28.50
2019-05-22T03:05:32.716Z,28.50
2019-05-22T03:08:08.016Z,28.60
2019-05-22T03:10:41.760Z,28.60
2019-05-22T03:13:16.182Z,28.60
2019-05-22T03:15:50.100Z,28.40
2019-05-22T03:18:22.031Z,28.30
2019-05-22T03:20:54.848Z,28.40
2019-05-22T03:23:39.401Z,28.30
2019-05-22T03:26:13.784Z,28.50
2019-05-22T03:28:47.302Z,28.30
2019-05-22T03:31:20.071Z,28.10
2019-05-22T03:33:52.753Z,28.30
2019-05-22T03:36:26.278Z,28.10
2019-05-22T03:38:59.280Z,28.10
2019-05-22T03:41:32.277Z,27.90
2019-05-22T03:44:06.820Z,28.10
2019-05-22T03:46:46.497Z,28.50
2019-05-22T03:49:30.080Z,28.90
2019-05-22T03:51:56.582Z,28.50
2019-05-22T03:54:28.563Z,28.40
2019-05-22T03:57:01.757Z,28.40
2019-05-22T03:59:34.170Z,28.30
2019-05-22T04:02:06.966Z,28.30
2019-05-22T04:04:42.696Z,28.30
2019-05-22T04:07:19.527Z,28.40
2019-05-22T04:09:53.676Z,28.20
2019-05-22T04:12:27.427Z,28.10
2019-05-22T04:15:00.475Z,28.10
2019-05-22T04:17:34.695Z,28.10
2019-05-22T04:20:09.321Z,28.40
2019-05-22T04:22:41.984Z,28.20
2019-05-22T04:25:13.910Z,28.30
2019-05-22T04:27:46.652Z,28.00
2019-05-22T04:30:19.660Z,28.20
2019-05-22T04:32:53.006Z,27.90
2019-05-22T04:35:26.541Z,28.10
2019-05-22T04:38:00.864Z,28.20
2019-05-22T04:40:55.931Z,28.00
2019-05-22T04:43:35.213Z,27.90
2019-05-22T04:46:10.956Z,27.90
2019-05-22T04:48:45.987Z,27.90
2019-05-22T04:51:32.884Z,28.20
2019-05-22T04:54:05.190Z,28.10
2019-05-22T04:56:37.587Z,28.10
2019-05-22T04:59:10.720Z,27.90
2019-05-22T05:01:43.197Z,28.00
2019-05-22T05:04:16.481Z,28.60
2019-05-22T05:06:50.225Z,28.60
2019-05-22T05:09:22.307Z,28.60
2019-05-22T05:11:54.432Z,28.30
2019-05-22T05:14:27.298Z,28.80
2019-05-22T05:16:59.640Z,28.20
2019-05-22T05:19:33.196Z,28.00
2019-05-22T05:22:05.865Z,28.10
2019-05-22T05:24:37.955Z,27.50
2019-05-22T05:27:11.089Z,27.30
2019-05-22T05:29:43.289Z,27.40
2019-05-22T05:32:15.832Z,27.20
2019-05-22T05:34:55.831Z,28.00
2019-05-22T05:37:28.517Z,28.10
2019-05-22T05:40:39.783Z,28.20
2019-05-22T05:43:19.096Z,28.20
2019-05-22T05:45:52.721Z,28.00
2019-05-22T05:48:26.109Z,27.50
2019-05-22T05:51:29.595Z,27.40
2019-05-22T05:54:12.208Z,27.00
2019-05-22T05:56:49.074Z,27.20
2019-05-22T05:59:22.916Z,27.30
2019-05-22T06:01:58.788Z,27.40
2019-05-22T06:04:35.868Z,27.10
2019-05-22T06:07:25.639Z,26.80
2019-05-22T06:11:11.521Z,26.80
2019-05-22T06:13:44.204Z,26.80
2019-05-22T06:17:26.173Z,27.10
2019-05-22T06:20:03.168Z,26.90
2019-05-22T06:22:35.206Z,27.30
2019-05-22T06:25:10.273Z,27.30
2019-05-22T06:27:56.187Z,27.30
2019-05-22T06:30:48.229Z,27.00
2019-05-22T06:33:39.873Z,27.20
2019-05-22T06:36:16.848Z,26.70
2019-05-22T06:39:12.305Z,26.80
2019-05-22T06:41:45.618Z,27.10
2019-05-22T06:44:36.279Z,26.80
2019-05-22T06:47:20.258Z,26.70
2019-05-22T06:49:55.530Z,26.70
2019-05-22T06:52:28.440Z,26.90
2019-05-22T06:55:00.556Z,27.40
2019-05-22T06:57:36.457Z,27.80
2019-05-22T07:00:20.208Z,27.70
2019-05-22T07:02:52.344Z,27.60
2019-05-22T07:05:25.483Z,27.60
2019-05-22T07:07:59.758Z,27.30
2019-05-22T07:10:33.023Z,27.70
2019-05-22T07:13:05.651Z,27.60
2019-05-22T07:15:42.028Z,26.90
2019-05-22T07:18:16.628Z,26.50
2019-05-22T07:20:50.772Z,26.60
2019-05-22T07:23:29.864Z,26.80
2019-05-22T07:26:03.828Z,27.10
2019-05-22T07:28:37.385Z,26.80
2019-05-22T07:31:09.397Z,26.80
2019-05-22T07:33:42.340Z,27.10
2019-05-22T07:36:17.130Z,26.60
2019-05-22T07:38:49.873Z,26.10
2019-05-22T07:41:22.141Z,26.30
2019-05-22T07:43:54.299Z,26.30
2019-05-22T07:46:26.325Z,26.10
2019-05-22T07:49:00.666Z,26.30
2019-05-22T07:51:33.326Z,26.40
2019-05-22T07:54:06.345Z,26.50
2019-05-22T07:56:40.359Z,26.50
2019-05-22T07:59:12.997Z,26.40
2019-05-22T08:01:45.457Z,26.30
2019-05-22T08:04:19.328Z,26.20
2019-05-22T08:06:52.627Z,26.10
2019-05-22T08:09:26.309Z,26.20
2019-05-22T08:12:00.377Z,25.50
2019-05-22T08:14:33.890Z,25.70
2019-05-22T08:17:08.876Z,25.70
2019-05-22T08:19:40.870Z,25.60
2019-05-22T08:22:13.709Z,25.50
2019-05-22T08:24:45.835Z,25.50
2019-05-22T08:27:20.350Z,26.00
2019-05-22T08:29:52.670Z,26.60
2019-05-22T08:32:25.200Z,25.90
2019-05-22T08:34:57.933Z,26.20
2019-05-22T08:37:33.597Z,26.00
2019-05-22T08:40:07.812Z,25.60
2019-05-22T08:42:41.375Z,25.40
2019-05-22T08:45:17.467Z,25.20
2019-05-22T08:47:51.170Z,25.10
2019-05-22T08:50:24.643Z,25.40
2019-05-22T08:52:57.339Z,25.60
2019-05-22T08:55:30.361Z,25.50
2019-05-22T08:58:03.351Z,25.20
2019-05-22T09:00:37.352Z,25.50
2019-05-22T09:03:09.910Z,25.70
2019-05-22T09:05:41.951Z,26.20
2019-05-22T09:08:13.812Z,26.10
2019-05-22T09:10:47.091Z,25.70
2019-05-22T09:13:18.939Z,26.20
2019-05-22T09:15:52.078Z,26.30
2019-05-22T09:18:24.375Z,26.70
2019-05-22T09:20:57.879Z,26.80
2019-05-22T09:23:29.706Z,27.30
2019-05-22T09:26:02.744Z,27.80
2019-05-22T09:28:34.850Z,27.80
2019-05-22T09:31:07.715Z,27.50
2019-05-22T09:33:40.870Z,27.40
2019-05-22T09:36:13.773Z,27.40
2019-05-22T09:38:46.075Z,27.10
2019-05-22T09:41:18.307Z,27.00
2019-05-22T09:43:50.056Z,27.30
2019-05-22T09:46:23.039Z,28.20
2019-05-22T09:48:56.928Z,28.70
2019-05-22T09:51:29.302Z,29.20
2019-05-22T09:54:02.274Z,28.60
2019-05-22T09:56:35.896Z,28.90
2019-05-22T09:59:07.714Z,28.90
2019-05-22T10:01:39.928Z,28.50
2019-05-22T10:04:12.372Z,28.90
2019-05-22T10:06:44.664Z,28.50
2019-05-22T10:09:16.481Z,29.60
2019-05-22T10:11:49.360Z,29.60
2019-05-22T10:14:22.050Z,28.90
2019-05-22T10:16:53.895Z,29.00
2019-05-22T10:19:25.862Z,28.60
2019-05-22T10:21:58.356Z,28.20
2019-05-22T10:24:30.672Z,28.30
2019-05-22T10:27:04.202Z,28.40
2019-05-22T10:29:36.896Z,28.30
2019-05-22T10:32:11.395Z,28.40
2019-05-22T10:34:44.257Z,28.80
2019-05-22T10:37:16.842Z,28.80
2019-05-22T10:39:50.667Z,29.10
2019-05-22T10:42:24.152Z,29.20
2019-05-22T10:44:55.935Z,29.70
2019-05-22T10:47:28.277Z,29.70
2019-05-22T10:50:00.032Z,29.60
2019-05-22T10:52:32.526Z,28.90
2019-05-22T10:55:05.008Z,28.60
2019-05-22T10:57:40.669Z,28.60
2019-05-22T11:00:15.322Z,28.60
2019-05-22T11:02:47.825Z,29.10
2019-05-22T11:05:23.426Z,29.10
2019-05-22T11:07:56.037Z,29.10
2019-05-22T11:10:28.587Z,29.20
2019-05-22T11:13:01.218Z,29.40
2019-05-22T11:15:33.138Z,29.10
2019-05-22T11:18:06.801Z,28.60
2019-05-22T11:20:39.120Z,28.90
2019-05-22T11:23:12.065Z,28.80
2019-05-22T11:25:44.001Z,29.80
2019-05-22T11:28:19.170Z,30.00
2019-05-22T11:30:51.389Z,30.30
2019-05-22T11:33:24.210Z,29.80
2019-05-22T11:35:56.823Z,29.40
2019-05-22T11:38:29.558Z,29.20
2019-05-22T11:41:01.421Z,28.20
2019-05-22T11:43:33.246Z,28.60
2019-05-22T11:46:06.802Z,28.70
2019-05-22T11:48:39.567Z,27.80
2019-05-22T11:51:12.165Z,28.30
2019-05-22T11:53:44.483Z,27.80
2019-05-22T11:56:16.258Z,27.90
2019-05-22T11:58:48.554Z,27.50
2019-05-22T12:01:20.890Z,27.40
2019-05-22T12:03:54.227Z,27.70
2019-05-22T12:06:26.967Z,27.40
2019-05-22T12:08:59.588Z,27.60
2019-05-22T12:11:31.575Z,27.70
2019-05-22T12:14:04.027Z,27.70
2019-05-22T12:16:36.021Z,27.90
2019-05-22T12:19:08.976Z,27.70
2019-05-22T12:21:41.306Z,27.50
2019-05-22T12:24:25.949Z,27.50
2019-05-22T12:26:47.133Z,27.10
2019-05-22T12:29:20.212Z,26.90
2019-05-22T12:31:52.241Z,26.70
2019-05-22T12:34:25.416Z,26.60
2019-05-22T12:36:58.066Z,26.40
2019-05-22T12:39:31.070Z,26.20
2019-05-22T12:42:03.424Z,26.40
2019-05-22T12:44:36.159Z,25.60
2019-05-22T12:47:09.481Z,25.90
2019-05-22T12:49:41.755Z,25.20
2019-05-22T12:52:14.524Z,25.20
2019-05-22T12:54:52.081Z,24.80
2019-05-22T12:57:20.633Z,24.70
2019-05-22T12:59:55.683Z,25.10
2019-05-22T13:02:28.020Z,25.30
2019-05-22T13:05:01.833Z,25.70
2019-05-22T13:07:33.852Z,26.20
2019-05-22T13:10:06.550Z,25.60
2019-05-22T13:12:38.670Z,25.70
2019-05-22T13:15:11.539Z,25.50
2019-05-22T13:17:45.076Z,25.30
2019-05-22T13:20:41.126Z,25.50
2019-05-22T13:23:02.099Z,25.30
2019-05-22T13:25:40.131Z,25.20
2019-05-22T13:28:16.569Z,24.50
2019-05-22T13:30:54.147Z,24.60
2019-05-22T13:33:29.494Z,25.00
2019-05-22T13:36:02.404Z,25.60
2019-05-22T13:38:35.531Z,26.40
2019-05-22T13:41:08.509Z,26.80
2019-05-22T13:43:40.506Z,27.50
2019-05-22T13:46:12.906Z,28.00
2019-05-22T13:48:44.916Z,28.80
2019-05-22T13:51:17.163Z,28.70
2019-05-22T13:53:50.500Z,28.40
2019-05-22T13:56:25.567Z,28.90
2019-05-22T13:58:58.584Z,28.90
2019-05-22T14:01:32.439Z,28.90
2019-05-22T14:04:05.193Z,29.00
2019-05-22T14:06:39.368Z,29.20
2019-05-22T14:09:21.097Z,29.10
2019-05-22T14:11:52.790Z,29.50
2019-05-22T14:14:25.382Z,28.90
2019-05-22T14:16:57.640Z,28.50
2019-05-22T14:19:29.461Z,27.90
2019-05-22T14:22:01.527Z,27.40
2019-05-22T14:24:33.458Z,25.40
2019-05-22T14:27:06.157Z,24.30
2019-05-22T14:29:39.715Z,23.50
2019-05-22T14:32:12.200Z,23.10
2019-05-22T14:34:44.836Z,23.20
2019-05-22T14:37:17.142Z,24.20
2019-05-22T14:39:49.467Z,25.00
2019-05-22T14:42:21.584Z,25.50
2019-05-22T14:44:53.371Z,26.00
2019-05-22T14:47:25.896Z,26.30
2019-05-22T14:49:57.898Z,26.80
2019-05-22T14:52:32.849Z,27.40
2019-05-22T14:55:05.412Z,28.00
2019-05-22T14:57:38.050Z,29.00
2019-05-22T15:00:14.649Z,28.40
2019-05-22T15:02:53.244Z,28.60
2019-05-22T15:05:22.379Z,28.50
2019-05-22T15:07:54.387Z,28.40
2019-05-22T15:10:28.176Z,28.30
2019-05-22T15:13:00.326Z,28.80
2019-05-22T15:15:32.655Z,28.70
2019-05-22T15:18:05.086Z,28.50
2019-05-22T15:20:52.951Z,28.30
2019-05-22T15:23:26.275Z,28.50
2019-05-22T15:25:59.983Z,29.20
2019-05-22T15:28:32.924Z,29.00
2019-05-22T15:31:07.013Z,28.80
2019-05-22T15:33:39.932Z,28.60
2019-05-22T15:36:16.408Z,29.00
2019-05-22T15:38:50.165Z,28.50
2019-05-22T15:41:22.868Z,28.40
2019-05-22T15:43:56.700Z,26.80
2019-05-22T15:46:33.014Z,25.90
2019-05-22T15:49:07.868Z,24.70
2019-05-22T15:51:41.186Z,24.30
2019-05-22T15:54:14.738Z,24.00
2019-05-22T15:56:47.883Z,23.00
2019-05-22T15:59:22.269Z,22.50
2019-05-22T16:01:55.274Z,22.00
2019-05-22T16:04:30.066Z,21.60
2019-05-22T16:07:05.255Z,21.10
2019-05-22T16:09:37.497Z,21.70
2019-05-22T16:12:11.117Z,21.20
2019-05-22T16:14:43.146Z,20.30
2019-05-22T16:17:17.153Z,20.10
2019-05-22T16:19:50.965Z,20.60
2019-05-22T16:22:26.071Z,20.60
2019-05-22T16:24:57.975Z,21.20
2019-05-22T16:27:31.891Z,21.40
2019-05-22T16:30:06.384Z,21.90
2019-05-22T16:32:38.319Z,22.40
2019-05-22T16:35:10.363Z,23.10
2019-05-22T16:37:43.921Z,23.60
2019-05-22T16:40:17.276Z,23.70
2019-05-22T16:42:50.159Z,24.50
2019-05-22T16:45:24.261Z,24.90
2019-05-22T16:47:57.906Z,24.80
2019-05-22T16:50:30.651Z,25.20
2019-05-22T16:53:09.109Z,25.70
2019-05-22T16:55:42.338Z,25.90
2019-05-22T16:58:16.812Z,26.50
2019-05-22T17:00:51.129Z,26.60
2019-05-22T17:03:26.214Z,27.00
2019-05-22T17:05:58.696Z,27.00
2019-05-22T17:08:31.449Z,27.40
2019-05-22T17:11:07.108Z,27.80
2019-05-22T17:13:40.654Z,27.90
2019-05-22T17:16:13.123Z,27.80
2019-05-22T17:18:48.099Z,28.10
2019-05-22T17:21:20.793Z,28.70
2019-05-22T17:23:53.439Z,28.30
2019-05-22T17:26:25.994Z,28.50
2019-05-22T17:28:58.800Z,28.50
2019-05-22T17:31:32.336Z,28.40
2019-05-22T17:34:07.283Z,28.50
2019-05-22T17:36:40.552Z,28.50
2019-05-22T17:39:13.750Z,28.50
2019-05-22T17:41:46.683Z,28.40
2019-05-22T17:44:21.243Z,28.20
2019-05-22T17:46:53.852Z,28.30
2019-05-22T17:49:27.941Z,28.10
2019-05-22T17:52:00.943Z,28.00
2019-05-22T17:54:35.732Z,28.10
2019-05-22T17:57:09.677Z,28.50
2019-05-22T17:59:41.737Z,28.40
2019-05-22T18:02:15.655Z,28.40
2019-05-22T18:04:47.653Z,28.80
2019-05-22T18:07:20.165Z,28.50
2019-05-22T18:09:52.071Z,29.00
2019-05-22T18:12:24.450Z,29.10
2019-05-22T18:14:56.284Z,29.10
2019-05-22T18:17:28.888Z,28.90
2019-05-22T18:20:00.879Z,29.00
2019-05-22T18:22:33.403Z,28.70
2019-05-22T18:25:06.480Z,29.00
2019-05-22T18:27:38.667Z,28.90
2019-05-22T18:30:12.320Z,28.90
2019-05-22T18:32:44.560Z,28.90
2019-05-22T18:35:16.880Z,28.90
2019-05-22T18:37:49.083Z,28.80
2019-05-22T18:40:21.757Z,28.80
2019-05-22T18:42:54.656Z,28.60
2019-05-22T18:45:28.067Z,28.60
2019-05-22T18:48:00.218Z,28.60
2019-05-22T18:50:33.305Z,28.50
2019-05-22T18:53:06.598Z,28.60
2019-05-22T18:55:38.919Z,28.70
2019-05-22T18:58:10.876Z,28.60
2019-05-22T19:00:45.091Z,28.40
2019-05-22T19:03:17.700Z,28.30
2019-05-22T19:05:50.271Z,28.40
2019-05-22T19:08:22.796Z,28.30
2019-05-22T19:10:55.003Z,28.10
2019-05-22T19:13:26.910Z,28.40
2019-05-22T19:15:59.265Z,28.20
2019-05-22T19:18:31.206Z,28.20
2019-05-22T19:21:03.584Z,28.30
2019-05-22T19:23:35.450Z,28.30
2019-05-22T19:26:07.319Z,28.30
2019-05-22T19:28:43.892Z,28.40
2019-05-22T19:31:14.515Z,28.40
2019-05-22T19:33:46.639Z,28.80
2019-05-22T19:36:18.522Z,28.30
2019-05-22T19:38:53.332Z,28.40
2019-05-22T19:41:25.745Z,28.40
2019-05-22T19:43:57.589Z,28.50
2019-05-22T19:46:31.087Z,28.40
2019-05-22T19:49:03.769Z,28.50
2019-05-22T19:51:37.061Z,28.70
2019-05-22T19:54:09.625Z,28.50
2019-05-22T19:56:41.593Z,28.60
2019-05-22T19:59:15.481Z,28.50
2019-05-22T20:01:48.079Z,28.60
2019-05-22T20:04:20.814Z,28.50
2019-05-22T20:06:55.392Z,28.60
2019-05-22T20:09:28.414Z,28.50
2019-05-22T20:12:01.896Z,28.40
2019-05-22T20:14:34.190Z,28.30
2019-05-22T20:17:07.022Z,28.30
2019-05-22T20:19:39.066Z,28.20
2019-05-22T20:22:11.258Z,28.20
2019-05-22T20:24:46.521Z,28.30
2019-05-22T20:27:19.016Z,28.20
2019-05-22T20:29:51.777Z,28.10
2019-05-22T20:32:24.207Z,28.10
2019-05-22T20:34:56.912Z,28.20
2019-05-22T20:37:29.607Z,28.10
2019-05-22T20:40:01.491Z,28.00
2019-05-22T20:42:34.606Z,28.00
2019-05-22T20:45:08.610Z,27.90
2019-05-22T20:47:44.224Z,27.90
2019-05-22T20:50:18.071Z,27.80
2019-05-22T20:52:50.279Z,27.90
2019-05-22T20:55:24.408Z,27.80
2019-05-22T20:57:57.793Z,27.80
2019-05-22T21:00:30.462Z,27.80
2019-05-22T21:03:09.036Z,27.80
2019-05-22T21:05:43.931Z,27.70
2019-05-22T21:08:18.320Z,27.70
2019-05-22T21:10:51.010Z,27.80
2019-05-22T21:13:24.111Z,27.60
2019-05-22T21:15:57.498Z,27.60
2019-05-22T21:18:52.103Z,27.70
2019-05-22T21:21:26.434Z,27.60
2019-05-22T21:24:09.830Z,27.70
2019-05-22T21:26:33.539Z,27.80
2019-05-22T21:29:07.405Z,27.90
2019-05-22T21:31:39.920Z,27.80
2019-05-22T21:34:12.190Z,27.80
2019-05-22T21:36:44.438Z,27.80
2019-05-22T21:39:16.958Z,28.00
2019-05-22T21:41:49.050Z,28.00
2019-05-22T21:44:21.454Z,27.80
2019-05-22T21:46:54.989Z,27.80
2019-05-22T21:49:29.061Z,28.10
2019-05-22T21:52:00.943Z,27.80
2019-05-22T21:54:32.787Z,27.80
2019-05-22T21:57:05.721Z,27.80
2019-05-22T21:59:37.532Z,27.80
2019-05-22T22:02:24.422Z,27.80
2019-05-22T22:04:56.233Z,27.80
2019-05-22T22:07:30.213Z,27.80
2019-05-22T22:10:06.977Z,27.60
2019-05-22T22:12:39.901Z,27.90
2019-05-22T22:15:14.937Z,27.60
2019-05-22T22:17:49.417Z,27.60
2019-05-22T22:20:22.868Z,27.70
2019-05-22T22:22:55.726Z,27.80
2019-05-22T22:25:27.787Z,27.70
2019-05-22T22:28:00.921Z,27.70
2019-05-22T22:30:39.385Z,27.80
2019-05-22T22:33:15.397Z,27.70
2019-05-22T22:35:48.411Z,27.90
2019-05-22T22:38:25.424Z,27.80
2019-05-22T22:40:59.655Z,27.90
2019-05-22T22:43:34.267Z,27.80
2019-05-22T22:46:16.632Z,28.20
2019-05-22T22:48:51.998Z,27.80
2019-05-22T22:51:26.326Z,27.90
2019-05-22T22:53:59.550Z,27.90
2019-05-22T22:56:32.276Z,27.90
2019-05-22T22:59:06.746Z,27.70
2019-05-22T23:01:43.851Z,27.80
2019-05-22T23:04:17.139Z,27.70
2019-05-22T23:06:49.056Z,27.60
2019-05-22T23:09:22.381Z,27.70
2019-05-22T23:11:55.332Z,27.70
2019-05-22T23:14:29.677Z,27.90
2019-05-22T23:17:01.622Z,27.90
2019-05-22T23:19:41.361Z,27.80
2019-05-22T23:22:15.344Z,27.80
2019-05-22T23:24:49.855Z,27.80
2019-05-22T23:27:22.797Z,27.60
2019-05-22T23:29:56.279Z,27.80
2019-05-22T23:32:29.644Z,27.80
2019-05-22T23:35:03.421Z,27.80
2019-05-22T23:37:36.830Z,27.60
2019-05-22T23:40:13.138Z,27.80
2019-05-22T23:42:47.016Z,27.40
2019-05-22T23:45:23.070Z,27.60
2019-05-22T23:48:14.914Z,27.50
2019-05-22T23:50:48.629Z,27.50
2019-05-22T23:53:21.643Z,27.40
2019-05-22T23:55:54.550Z,27.50
2019-05-22T23:58:29.095Z,27.60
